Time;durP1;ratioP1;P1;durP2;ratioP2;P2;SDS_P1;SDS_P2;PMS_P1;PMS_P2;Temp;Humidity;BMP_temperature;BMP_pressure;BME280_temperature;BME280_humidity;BME280_pressure;Samples;Min_cycle;Max_cycle;Signal;HPM_P1;HPM_P2
2021/12/11 00:00:18;;;;;;;;;1.00;1.00;;;;;9.63;56.46;100676.72;5082832;27;45500;-67
2021/12/11 00:02:45;;;;;;;;;2.00;2.00;;;;;9.59;55.92;100672.41;5082502;27;45336;-67
2021/12/11 00:05:15;;;;;;;;;6.50;2.50;;;;;9.58;55.84;100686.63;5082133;28;45331;-67
2021/12/11 00:07:41;;;;;;;;;2.00;2.00;;;;;9.61;56.04;100683.88;5082407;27;45591;-67
2021/12/11 00:10:15;;;;;;;;;1.00;1.00;;;;;9.63;56.16;100681.19;5082242;27;45475;-67
2021/12/11 00:12:46;;;;;;;;;2.00;2.00;;;;;9.64;56.55;100685.59;5069165;28;45483;-67
2021/12/11 00:15:14;;;;;;;;;3.25;3.00;;;;;9.61;56.53;100697.22;5082283;28;45503;-67
2021/12/11 00:17:39;;;;;;;;;3.00;1.75;;;;;9.60;56.14;100695.44;5082422;28;45235;-67
2021/12/11 00:20:13;;;;;;;;;1.50;1.50;;;;;9.66;56.08;100710.41;5082169;27;45272;-67
2021/12/11 00:22:41;;;;;;;;;2.00;1.00;;;;;9.67;56.07;100705.94;5063812;28;45449;-67
2021/12/11 00:25:09;;;;;;;;;4.00;3.00;;;;;9.67;56.31;100716.59;5081394;27;46268;-67
2021/12/11 00:27:41;;;;;;;;;2.75;1.00;;;;;9.62;56.65;100720.28;5081901;28;45407;-67
2021/12/11 00:30:20;;;;;;;;;2.75;1.75;;;;;9.62;56.34;100720.28;5081996;28;45207;-67
2021/12/11 00:32:45;;;;;;;;;5.75;2.00;;;;;9.60;56.49;100716.78;5082128;28;45420;-67
2021/12/11 00:35:16;;;;;;;;;3.00;2.00;;;;;9.63;56.51;100726.50;5081472;27;46253;-67
2021/12/11 00:37:41;;;;;;;;;3.75;1.00;;;;;9.63;56.20;100730.00;5082042;28;45294;-67
2021/12/11 00:40:18;;;;;;;;;4.00;1.00;;;;;9.66;56.64;100741.53;5082014;27;45624;-67
2021/12/11 00:42:52;;;;;;;;;2.25;2.00;;;;;9.62;56.37;100741.63;5081858;27;45455;-68
2021/12/11 00:45:21;;;;;;;;;2.00;2.00;;;;;9.57;56.77;100738.22;5081784;28;46490;-67
2021/12/11 00:47:51;;;;;;;;;2.00;2.00;;;;;9.61;56.39;100758.50;5081791;28;45325;-67
2021/12/11 00:50:19;;;;;;;;;3.25;3.25;;;;;9.63;56.13;100761.13;5081562;27;45223;-67
2021/12/11 00:52:47;;;;;;;;;3.25;2.75;;;;;9.63;56.15;100770.00;5081171;27;45265;-67
2021/12/11 00:55:30;;;;;;;;;3.25;3.25;;;;;9.61;56.63;100761.19;5063418;28;47046;-67
2021/12/11 00:58:11;;;;;;;;;4.50;4.00;;;;;9.65;56.10;100772.63;5076658;28;45342;-67
2021/12/11 01:01:16;;;;;;;;;5.25;2.00;;;;;9.66;56.60;100777.03;5075436;28;45220;-67
2021/12/11 01:03:54;;;;;;;;;2.50;2.50;;;;;9.64;56.59;100777.09;4999044;28;45325;-67
2021/12/11 01:06:24;;;;;;;;;4.00;3.00;;;;;9.62;56.28;100780.69;5072232;28;46275;-67
2021/12/11 01:08:57;;;;;;;;;3.75;3.00;;;;;9.64;56.17;100792.22;5081362;28;45345;-67
2021/12/11 01:11:34;;;;;;;;;4.00;1.00;;;;;9.67;56.37;100800.09;5081525;28;45265;-67
2021/12/11 01:14:22;;;;;;;;;2.75;2.00;;;;;9.68;56.39;100801.00;5081166;28;45472;-67
2021/12/11 01:17:20;;;;;;;;;2.75;2.00;;;;;9.63;56.30;100798.44;5064877;28;45347;-67
2021/12/11 01:19:50;;;;;;;;;4.50;2.75;;;;;9.67;56.50;100812.56;5081181;28;45370;-67
2021/12/11 01:22:33;;;;;;;;;2.00;2.00;;;;;9.63;56.27;100822.44;5081352;28;45181;-67
2021/12/11 01:25:03;;;;;;;;;2.50;2.50;;;;;9.64;56.00;100825.06;5074087;28;45360;-67
2021/12/11 01:27:30;;;;;;;;;1.25;1.25;;;;;9.63;56.20;100825.97;5080896;28;46358;-67
2021/12/11 01:29:58;;;;;;;;;2.50;2.50;;;;;9.64;56.11;100832.19;5080817;28;45685;-67
2021/12/11 01:32:26;;;;;;;;;5.00;3.00;;;;;9.60;56.36;100839.38;5081295;28;45301;-67
2021/12/11 01:34:52;;;;;;;;;3.00;2.75;;;;;9.62;56.36;100842.91;5080571;27;45572;-67
2021/12/11 01:37:18;;;;;;;;;3.75;2.00;;;;;9.63;56.06;100838.44;5079986;28;46211;-67
2021/12/11 01:39:47;;;;;;;;;3.00;2.00;;;;;9.64;56.61;100857.03;5062241;28;46231;-67
2021/12/11 01:42:29;;;;;;;;;3.00;2.25;;;;;9.66;56.51;100861.47;5081004;28;45334;-67
2021/12/11 01:44:59;;;;;;;;;4.00;2.00;;;;;9.62;56.47;100853.56;5080859;28;45411;-67
2021/12/11 01:47:32;;;;;;;;;6.50;1.50;;;;;9.62;56.40;100856.22;5049487;28;47042;-67
2021/12/11 01:50:07;;;;;;;;;3.00;2.00;;;;;9.64;56.44;100870.38;5074068;28;45619;-67
2021/12/11 01:52:42;;;;;;;;;3.25;3.00;;;;;9.62;55.97;100869.53;5080237;28;45335;-67
2021/12/11 01:55:21;;;;;;;;;2.75;2.00;;;;;9.59;56.18;100872.28;5080949;28;45259;-67
2021/12/11 01:57:52;;;;;;;;;7.00;4.00;;;;;9.60;56.71;100871.34;5080383;28;45508;-68
2021/12/11 02:00:45;;;;;;;;;7.00;2.00;;;;;9.59;56.23;100864.28;5080816;28;46070;-67
2021/12/11 02:03:16;;;;;;;;;2.25;1.75;;;;;9.54;56.40;100867.97;5069217;28;45351;-67
2021/12/11 02:05:43;;;;;;;;;3.00;1.75;;;;;9.57;56.25;100879.47;5080017;27;45292;-67
2021/12/11 02:08:18;;;;;;;;;2.75;2.75;;;;;9.55;56.65;100883.06;5080505;28;47091;-67
2021/12/11 02:10:55;;;;;;;;;1.75;1.75;;;;;9.56;56.41;100882.16;5080256;28;45327;-67
2021/12/11 02:13:36;;;;;;;;;1.75;1.75;;;;;9.51;56.95;100878.75;5080706;28;45492;-67
2021/12/11 02:16:03;;;;;;;;;6.75;1.75;;;;;9.55;56.54;100896.38;5073824;28;45185;-67
2021/12/11 02:18:35;;;;;;;;;4.00;2.25;;;;;9.54;56.17;100895.50;5080183;28;47610;-67
2021/12/11 02:21:15;;;;;;;;;4.75;2.00;;;;;9.49;56.59;100901.84;5080569;28;45551;-67
2021/12/11 02:23:41;;;;;;;;;2.75;1.25;;;;;9.46;56.52;100900.16;5062261;28;45429;-67
2021/12/11 02:26:11;;;;;;;;;5.00;2.75;;;;;9.48;56.70;100914.31;5080203;28;45435;-67
2021/12/11 02:28:42;;;;;;;;;4.75;2.00;;;;;9.49;56.54;100918.75;5079702;28;45634;-67
2021/12/11 02:31:28;;;;;;;;;2.00;2.00;;;;;9.49;56.46;100915.19;5080399;28;45556;-67
2021/12/11 02:34:12;;;;;;;;;3.00;2.00;;;;;9.50;56.49;100925.81;5080071;28;45169;-67
2021/12/11 02:36:59;;;;;;;;;3.00;3.00;;;;;9.50;56.70;100919.59;5079713;28;45315;-67
2021/12/11 02:39:35;;;;;;;;;3.75;2.00;;;;;9.47;56.58;100912.56;5079931;28;46250;-67
2021/12/11 02:42:21;;;;;;;;;1.50;1.00;;;;;9.44;56.81;100910.00;5079961;28;45555;-67
2021/12/11 02:44:56;;;;;;;;;3.50;2.00;;;;;9.48;56.80;100924.97;5079879;28;45601;-67
2021/12/11 02:47:24;;;;;;;;;4.50;2.00;;;;;9.46;56.72;100933.00;5079795;27;45208;-67
2021/12/11 02:50:03;;;;;;;;;1.75;1.75;;;;;9.46;56.55;100934.81;5079600;28;45302;-67
2021/12/11 02:52:38;;;;;;;;;1.25;1.25;;;;;9.42;56.85;100928.69;5079367;28;45432;-67
2021/12/11 02:55:12;;;;;;;;;3.00;2.00;;;;;9.45;56.92;100939.25;5080035;28;45474;-67
2021/12/11 02:57:48;;;;;;;;;3.00;1.00;;;;;9.40;56.73;100932.28;5079762;28;45429;-68
2021/12/11 03:00:28;;;;;;;;;2.00;0.50;;;;;9.41;57.03;100944.69;5061367;28;47489;-67
2021/12/11 03:03:06;;;;;;;;;2.00;2.00;;;;;9.41;57.11;100958.03;5078436;27;45636;-67
2021/12/11 03:05:57;;;;;;;;;1.25;1.00;;;;;9.40;57.09;100951.78;5079610;28;45358;-67
2021/12/11 03:08:22;;;;;;;;;4.25;1.50;;;;;9.36;56.63;100957.25;5063444;28;45269;-67
2021/12/11 03:10:56;;;;;;;;;2.00;1.00;;;;;9.37;56.83;100961.66;5079563;28;45346;-67
2021/12/11 03:13:22;;;;;;;;;5.75;1.75;;;;;9.36;56.51;100960.78;5079833;28;45462;-67
2021/12/11 03:15:49;;;;;;;;;1.00;1.00;;;;;9.37;57.13;100965.22;5079671;28;45527;-67
2021/12/11 03:18:16;;;;;;;;;2.50;0.25;;;;;9.37;56.63;100972.31;5079884;28;45392;-67
2021/12/11 03:20:44;;;;;;;;;1.25;1.25;;;;;9.35;56.87;100977.69;5079184;28;45335;-67
2021/12/11 03:23:10;;;;;;;;;2.00;1.00;;;;;9.31;56.89;100981.34;5079842;27;45534;-67
2021/12/11 03:25:36;;;;;;;;;1.25;1.00;;;;;9.26;56.87;100991.22;5072609;28;45540;-67
2021/12/11 03:28:03;;;;;;;;;3.00;1.00;;;;;9.26;57.36;100993.88;5079363;28;45244;-67
2021/12/11 03:30:35;;;;;;;;;1.00;0.25;;;;;9.23;56.98;100996.63;5064926;28;46017;-68
2021/12/11 03:33:06;;;;;;;;;4.50;1.00;;;;;9.26;56.95;101002.75;5079365;28;45350;-67
2021/12/11 03:35:31;;;;;;;;;2.00;1.00;;;;;9.30;57.46;101005.34;5078889;28;46663;-67
2021/12/11 03:37:58;;;;;;;;;1.00;1.00;;;;;9.28;57.29;101010.72;5079365;28;45492;-67
2021/12/11 03:40:25;;;;;;;;;2.25;1.25;;;;;9.30;56.95;101018.66;5079169;28;45418;-67
2021/12/11 03:42:52;;;;;;;;;1.75;1.75;;;;;9.30;57.34;101016.00;5079280;28;45219;-67
2021/12/11 03:45:25;;;;;;;;;2.00;2.00;;;;;9.25;57.25;101019.66;5079459;28;45394;-67
2021/12/11 03:48:02;;;;;;;;;2.25;1.00;;;;;9.31;57.16;101026.63;5079299;28;45234;-67
2021/12/11 03:50:29;;;;;;;;;2.00;2.00;;;;;9.28;57.45;101029.34;5050862;28;45765;-67
2021/12/11 03:52:55;;;;;;;;;0.50;0.25;;;;;9.25;57.15;101029.41;5078561;28;45267;-67
2021/12/11 03:55:27;;;;;;;;;1.75;1.75;;;;;9.25;57.55;101038.31;5079423;28;45576;-67
2021/12/11 03:57:58;;;;;;;;;1.00;1.00;;;;;9.22;57.50;101038.38;5078875;28;45499;-67
2021/12/11 04:00:27;;;;;;;;;1.00;1.00;;;;;9.26;57.58;101048.03;5081745;27;45916;-67
2021/12/11 04:03:00;;;;;;;;;1.50;1.50;;;;;9.24;57.21;101046.34;5082489;27;45269;-67
2021/12/11 04:05:25;;;;;;;;;2.00;0.00;;;;;9.27;57.71;101051.56;5082397;28;45398;-67
2021/12/11 04:07:51;;;;;;;;;2.50;0.25;;;;;9.27;57.34;101049.81;5082650;28;45224;-67
2021/12/11 04:10:19;;;;;;;;;1.00;1.00;;;;;9.28;57.57;101048.00;5082105;27;46078;-67
2021/12/11 04:12:48;;;;;;;;;1.00;1.00;;;;;9.28;57.25;101050.66;5082452;28;45454;-67
2021/12/11 04:15:15;;;;;;;;;1.00;1.00;;;;;9.27;57.38;101051.56;5082450;28;45335;-67
2021/12/11 04:17:40;;;;;;;;;2.00;1.00;;;;;9.23;57.20;101050.75;5069400;28;45466;-67
2021/12/11 04:20:15;;;;;;;;;3.00;2.00;;;;;9.26;57.69;101044.50;5063595;28;46233;-67
2021/12/11 04:22:42;;;;;;;;;1.00;1.00;;;;;9.19;57.33;101043.75;5082639;28;46861;-67
2021/12/11 04:25:10;;;;;;;;;0.75;0.00;;;;;9.21;57.52;101044.59;5075475;27;45319;-68
2021/12/11 04:27:36;;;;;;;;;0.50;0.50;;;;;9.27;57.66;101059.56;5082225;27;45303;-67
2021/12/11 04:30:05;;;;;;;;;3.50;1.00;;;;;9.26;57.68;101066.69;5081989;27;45375;-67
2021/12/11 04:32:33;;;;;;;;;1.00;1.00;;;;;9.23;57.68;101063.22;5082388;28;45362;-67
2021/12/11 04:34:59;;;;;;;;;1.00;1.00;;;;;9.26;57.43;101071.13;5081831;27;45409;-68
2021/12/11 04:37:29;;;;;;;;;1.00;1.00;;;;;9.27;57.71;101070.22;5081965;28;45537;-67
2021/12/11 04:40:00;;;;;;;;;2.00;2.00;;;;;9.26;57.61;101081.78;5081944;28;45359;-67
2021/12/11 04:42:43;;;;;;;;;1.50;1.00;;;;;9.27;57.15;101084.44;5082174;28;45674;-67
2021/12/11 04:45:15;;;;;;;;;3.00;1.00;;;;;9.25;57.46;101082.69;5070816;28;45515;-67
2021/12/11 04:47:47;;;;;;;;;1.25;0.50;;;;;9.25;57.73;101085.34;5082149;28;45456;-67
2021/12/11 04:50:30;;;;;;;;;1.00;1.00;;;;;9.26;57.30;101093.31;5081626;27;45935;-67
2021/12/11 04:52:58;;;;;;;;;3.00;0.25;;;;;9.27;57.34;101097.75;5081052;28;45621;-68
2021/12/11 04:56:28;;;;;;;;;1.50;0.75;;;;;9.24;57.43;101097.81;5082040;27;45243;-67
2021/12/11 05:11:16;;;;;;;;;3.75;2.00;;;;;9.23;57.48;101092.50;5069454;28;45888;-67
2021/12/11 05:13:43;;;;;;;;;2.00;1.00;;;;;9.23;57.70;101089.84;5068808;27;45745;-67
2021/12/11 05:16:11;;;;;;;;;1.00;1.00;;;;;9.23;57.42;101103.16;5081782;28;45416;-67
2021/12/11 05:18:39;;;;;;;;;1.00;1.00;;;;;9.24;57.44;101108.47;5081281;28;45331;-67
2021/12/11 05:21:13;;;;;;;;;1.75;1.50;;;;;9.22;57.86;101099.63;5081855;28;45325;-67
2021/12/11 05:23:38;;;;;;;;;1.00;1.00;;;;;9.25;57.86;101110.22;5046014;28;45311;-67
2021/12/11 05:26:05;;;;;;;;;1.75;1.25;;;;;9.23;57.46;101111.16;5078466;27;45490;-67
2021/12/11 05:28:32;;;;;;;;;1.75;0.75;;;;;9.26;57.36;101119.09;5081360;28;45220;-67
2021/12/11 05:31:00;;;;;;;;;2.00;1.00;;;;;9.16;57.46;101109.53;5081497;28;46375;-67
2021/12/11 05:33:26;;;;;;;;;3.00;1.00;;;;;9.24;57.46;101135.09;5080976;28;45306;-67
2021/12/11 05:35:52;;;;;;;;;2.00;1.00;;;;;9.22;57.61;101136.03;5081240;28;45319;-67
2021/12/11 05:38:21;;;;;;;;;3.00;1.00;;;;;9.22;57.51;101147.59;5081036;27;45385;-67
2021/12/11 05:40:57;;;;;;;;;2.25;2.00;;;;;9.21;57.81;101142.28;5080996;27;45528;-67
2021/12/11 05:43:23;;;;;;;;;3.50;2.50;;;;;9.18;57.55;101156.53;5068076;28;45166;-67
2021/12/11 05:45:49;;;;;;;;;2.75;2.75;;;;;9.18;57.67;101150.34;5081224;28;45443;-67
2021/12/11 05:48:15;;;;;;;;;1.50;0.50;;;;;9.22;57.68;101162.66;5081259;28;45430;-67
2021/12/11 05:50:47;;;;;;;;;2.25;2.25;;;;;9.24;57.54;101166.19;5080455;28;46225;-67
2021/12/11 05:53:13;;;;;;;;;2.00;2.00;;;;;9.23;57.44;101167.97;5080907;27;45609;-67
2021/12/11 05:55:40;;;;;;;;;1.00;1.00;;;;;9.22;57.77;101176.88;5081156;28;45567;-67
2021/12/11 05:58:14;;;;;;;;;3.00;2.00;;;;;9.19;57.40;101182.25;5080771;28;45396;-67
2021/12/11 06:00:47;;;;;;;;;1.00;1.00;;;;;9.22;57.78;101190.19;5080675;28;46886;-67
2021/12/11 06:03:13;;;;;;;;;3.00;1.50;;;;;9.21;57.48;101199.09;5081016;28;45526;-67
2021/12/11 06:05:40;;;;;;;;;2.50;1.50;;;;;9.21;57.72;101204.41;5080392;28;45572;-67
2021/12/11 06:08:08;;;;;;;;;4.75;2.00;;;;;9.17;57.28;101202.72;5080840;28;45302;-67
2021/12/11 06:10:35;;;;;;;;;3.50;2.75;;;;;9.16;57.56;101211.63;5080387;28;45366;-67
2021/12/11 06:13:02;;;;;;;;;2.00;2.00;;;;;9.15;57.62;101212.50;5080892;27;45224;-67
2021/12/11 06:15:29;;;;;;;;;1.75;1.75;;;;;9.17;57.25;101225.81;5080745;28;45416;-67
2021/12/11 06:17:55;;;;;;;;;2.00;1.25;;;;;9.16;57.39;101222.28;5080930;28;45617;-67
2021/12/11 06:20:25;;;;;;;;;3.75;3.25;;;;;9.14;57.05;101212.53;5080250;27;46221;-67
2021/12/11 06:22:50;;;;;;;;;2.25;2.00;;;;;9.11;57.55;101212.63;5080090;28;45324;-67
2021/12/11 06:25:22;;;;;;;;;2.00;1.50;;;;;9.13;57.72;101225.00;5073857;28;45249;-67
2021/12/11 06:27:48;;;;;;;;;2.25;1.25;;;;;9.11;57.58;101232.13;5080356;28;45366;-67
2021/12/11 06:30:15;;;;;;;;;2.50;2.25;;;;;9.08;57.01;101227.72;5079460;28;45672;-67
2021/12/11 06:32:43;;;;;;;;;3.75;2.75;;;;;9.09;57.23;101225.97;5063520;27;45579;-67
2021/12/11 06:35:15;;;;;;;;;2.75;1.50;;;;;9.08;57.39;101234.84;5080525;27;45379;-67
2021/12/11 06:37:40;;;;;;;;;6.75;2.25;;;;;9.01;57.20;101225.22;5080341;28;45529;-67
2021/12/11 06:40:07;;;;;;;;;2.75;2.75;;;;;9.04;57.61;101238.50;5079761;28;45239;-67
2021/12/11 06:42:32;;;;;;;;;3.00;3.00;;;;;8.99;57.39;101235.03;5080599;27;45445;-67
2021/12/11 06:44:58;;;;;;;;;7.00;3.00;;;;;8.99;56.97;101238.56;5080199;28;45340;-67
2021/12/11 06:47:23;;;;;;;;;3.75;3.25;;;;;9.00;57.63;101250.09;5087811;27;45298;-67
2021/12/11 06:49:49;;;;;;;;;4.00;3.50;;;;;8.95;57.42;101255.50;5076348;28;45385;-67
2021/12/11 06:52:22;;;;;;;;;3.50;3.00;;;;;8.98;57.79;101265.22;5078935;28;45523;-66
2021/12/11 06:54:49;;;;;;;;;3.00;2.00;;;;;8.94;57.22;101267.06;5060078;27;45386;-67
2021/12/11 06:57:15;;;;;;;;;3.25;2.00;;;;;8.95;57.73;101287.44;5072546;28;45390;-67
2021/12/11 06:59:41;;;;;;;;;2.25;2.25;;;;;8.95;57.69;101298.09;5079217;28;45323;-67
2021/12/11 07:02:06;;;;;;;;;4.00;3.00;;;;;8.94;57.49;101295.44;5061074;28;45364;-67
2021/12/11 07:04:33;;;;;;;;;2.75;2.25;;;;;8.93;57.36;101291.91;5081244;27;45311;-67
2021/12/11 07:06:58;;;;;;;;;4.00;2.00;;;;;8.88;57.84;101299.97;5086572;27;45384;-67
2021/12/11 07:09:26;;;;;;;;;3.00;3.00;;;;;8.85;57.48;101305.38;5058185;28;45999;-67
2021/12/11 07:11:54;;;;;;;;;3.25;2.25;;;;;8.88;57.55;101312.41;5072319;28;45428;-67
2021/12/11 07:14:23;;;;;;;;;3.25;3.00;;;;;8.87;57.78;101308.88;5086500;27;45445;-67
2021/12/11 07:16:48;;;;;;;;;3.00;3.00;;;;;8.86;57.72;101323.09;5079648;27;45241;-67
2021/12/11 07:19:15;;;;;;;;;5.00;2.00;;;;;8.82;57.41;101315.16;5079720;28;45236;-67
2021/12/11 07:21:41;;;;;;;;;4.00;3.00;;;;;8.84;57.50;101332.03;5079789;28;45331;-72
2021/12/11 07:24:11;;;;;;;;;6.00;3.00;;;;;8.79;57.98;101329.44;5060964;28;45434;-71
2021/12/11 07:26:36;;;;;;;;;2.75;2.00;;;;;8.82;58.03;101334.72;5078499;28;45807;-71
2021/12/11 07:29:07;;;;;;;;;5.00;2.00;;;;;8.84;57.75;101337.34;5061044;28;47043;-71
2021/12/11 07:31:33;;;;;;;;;2.00;2.00;;;;;8.78;57.51;101332.97;5079450;28;45721;-72
2021/12/11 07:33:59;;;;;;;;;2.50;2.25;;;;;8.81;58.04;101346.25;5080054;28;45307;-71
2021/12/11 07:36:26;;;;;;;;;3.00;3.00;;;;;8.84;58.03;101354.19;5081426;28;45473;-66
2021/12/11 07:38:52;;;;;;;;;2.25;2.25;;;;;8.82;57.66;101342.69;5087955;27;45466;-67
2021/12/11 07:41:18;;;;;;;;;3.50;3.00;;;;;8.84;57.77;101348.88;5082749;27;45397;-67
2021/12/11 07:43:45;;;;;;;;;5.00;2.75;;;;;8.85;58.00;101352.41;5083272;28;45290;-67
2021/12/11 07:46:14;;;;;;;;;4.75;3.00;;;;;8.86;57.67;101363.03;5083034;28;45332;-66
2021/12/11 07:48:40;;;;;;;;;7.75;4.75;;;;;8.84;57.73;101366.63;5082606;28;46205;-67
2021/12/11 07:51:07;;;;;;;;;2.00;2.00;;;;;8.84;57.93;101375.50;5079014;28;45605;-68
2021/12/11 07:53:32;;;;;;;;;3.75;2.75;;;;;8.78;57.48;101370.25;5071628;27;45386;-67
2021/12/11 07:55:58;;;;;;;;;6.00;3.75;;;;;8.83;57.82;101389.69;5093385;27;45510;-67
2021/12/11 07:58:24;;;;;;;;;3.75;3.75;;;;;8.79;57.71;101389.78;5082672;27;46391;-67
2021/12/11 08:00:50;;;;;;;;;3.00;3.00;;;;;8.70;57.98;101375.69;5082890;28;45235;-67
2021/12/11 08:03:17;;;;;;;;;6.00;3.00;;;;;8.80;57.90;101383.53;5082392;27;45362;-66
2021/12/11 08:05:45;;;;;;;;;3.25;3.25;;;;;8.78;58.06;101382.69;5082660;28;45482;-66
2021/12/11 08:08:11;;;;;;;;;3.75;3.00;;;;;8.79;57.71;101395.09;5072306;27;46765;-66
2021/12/11 08:10:38;;;;;;;;;4.00;3.75;;;;;8.81;58.01;101401.28;5082637;27;45378;-67
2021/12/11 08:13:06;;;;;;;;;7.25;6.25;;;;;8.82;57.89;101413.66;5077530;28;45323;-67
2021/12/11 08:15:32;;;;;;;;;7.00;3.75;;;;;8.80;58.05;101411.03;5070429;28;45442;-67
2021/12/11 08:17:58;;;;;;;;;7.50;6.00;;;;;8.77;57.93;101411.09;5082252;27;45484;-67
2021/12/11 08:20:27;;;;;;;;;3.00;3.00;;;;;8.77;58.01;101413.75;5082086;27;45759;-67
2021/12/11 08:22:54;;;;;;;;;8.50;5.50;;;;;8.80;57.64;101431.44;5082703;28;45384;-67
2021/12/11 08:25:23;;;;;;;;;3.00;1.50;;;;;8.80;58.12;101429.66;5082445;28;45430;-67
2021/12/11 08:27:49;;;;;;;;;4.00;3.00;;;;;8.75;58.34;101426.19;5081356;27;45946;-67
2021/12/11 08:30:15;;;;;;;;;7.50;3.00;;;;;8.80;58.34;101431.44;5079948;28;45624;-68
2021/12/11 08:32:41;;;;;;;;;1.50;1.50;;;;;8.81;58.46;101427.91;5082294;27;45247;-68
2021/12/11 08:35:10;;;;;;;;;3.25;3.25;;;;;8.74;58.26;101427.09;5078576;27;45540;-68
2021/12/11 08:37:38;;;;;;;;;3.75;2.50;;;;;8.81;58.60;101438.56;5070115;27;47709;-68
2021/12/11 08:40:09;;;;;;;;;1.75;1.75;;;;;8.78;58.29;101436.78;5082177;27;45331;-68
2021/12/11 08:42:35;;;;;;;;;6.25;3.75;;;;;8.80;58.06;101440.31;5063860;28;45311;-66
2021/12/11 08:45:06;;;;;;;;;3.50;3.50;;;;;8.82;58.58;101429.66;5081929;27;45265;-66
2021/12/11 08:47:36;;;;;;;;;7.50;3.25;;;;;8.81;58.72;101423.44;5081823;28;45789;-68
2021/12/11 08:50:04;;;;;;;;;6.50;5.75;;;;;8.85;58.46;101432.25;5081438;28;45280;-68
2021/12/11 08:52:34;;;;;;;;;8.00;3.25;;;;;8.83;58.48;101437.59;5080663;27;45439;-67
2021/12/11 08:55:01;;;;;;;;;6.75;3.75;;;;;8.88;58.64;101440.22;5081961;27;45480;-67
2021/12/11 08:57:30;;;;;;;;;5.25;5.25;;;;;8.91;58.78;101453.50;5081276;27;45243;-67
2021/12/11 09:00:00;;;;;;;;;10.25;6.75;;;;;8.85;58.82;101440.25;5081856;28;45338;-69
2021/12/11 09:02:33;;;;;;;;;7.00;3.25;;;;;8.88;58.58;101449.06;5081994;28;45300;-71
2021/12/11 09:05:07;;;;;;;;;6.75;4.25;;;;;8.98;58.62;101467.59;5081573;28;45340;-71
2021/12/11 09:08:14;;;;;;;;;4.00;3.00;;;;;9.00;58.40;101466.66;5081785;28;45370;-72
2021/12/11 09:10:45;;;;;;;;;6.25;6.25;;;;;8.99;58.57;101470.25;5055483;28;45149;-72
2021/12/11 09:13:25;;;;;;;;;7.75;7.00;;;;;8.95;58.59;101464.97;5066194;27;45329;-71
2021/12/11 09:15:54;;;;;;;;;9.00;7.50;;;;;8.96;58.94;101474.75;5081061;28;45382;-72
2021/12/11 09:18:27;;;;;;;;;4.00;4.00;;;;;8.92;58.96;101465.91;5080508;27;46088;-71
2021/12/11 09:21:05;;;;;;;;;7.00;4.75;;;;;9.03;59.10;101479.06;5081159;27;45509;-72
2021/12/11 09:23:36;;;;;;;;;9.50;4.50;;;;;9.08;59.06;101493.19;5081852;28;45362;-72
2021/12/11 09:26:17;;;;;;;;;8.75;3.25;;;;;9.11;58.55;101490.50;5081356;27;45694;-72
2021/12/11 09:29:01;;;;;;;;;7.50;4.00;;;;;9.09;58.61;101492.31;5081483;27;46170;-72
2021/12/11 09:31:35;;;;;;;;;7.25;3.50;;;;;9.18;58.55;101510.78;5050549;28;45466;-71
2021/12/11 09:34:14;;;;;;;;;5.25;4.00;;;;;9.24;58.48;101518.72;5081226;28;45323;-71
2021/12/11 09:36:48;;;;;;;;;1.75;1.50;;;;;9.26;58.42;101519.56;5067693;28;45914;-71
2021/12/11 09:39:30;;;;;;;;;2.75;2.75;;;;;9.25;58.30;101525.81;5080880;28;46003;-71
2021/12/11 09:41:56;;;;;;;;;5.75;4.00;;;;;9.31;57.99;101526.63;5080914;28;45503;-72
2021/12/11 09:44:29;;;;;;;;;8.00;7.00;;;;;9.32;58.46;101539.94;5080956;28;57465;-71
2021/12/11 09:47:03;;;;;;;;;8.00;6.00;;;;;9.31;58.62;101534.63;5080889;28;45390;-72
2021/12/11 09:49:35;;;;;;;;;4.75;4.25;;;;;9.32;58.34;101539.94;5078731;28;48544;-73
2021/12/11 09:52:15;;;;;;;;;3.00;3.00;;;;;9.27;58.51;101526.66;5079903;28;45455;-73
2021/12/11 09:54:42;;;;;;;;;8.50;6.00;;;;;9.30;58.28;101533.72;5079091;28;45306;-71
2021/12/11 09:57:13;;;;;;;;;10.00;8.25;;;;;9.28;58.79;101530.19;5066973;28;45575;-72
2021/12/11 09:59:39;;;;;;;;;14.75;9.75;;;;;9.20;58.81;101524.09;5079919;28;46085;-72
2021/12/11 10:02:11;;;;;;;;;12.50;12.50;;;;;9.26;58.58;101546.19;5081025;28;45718;-72
2021/12/11 10:05:01;;;;;;;;;14.00;10.25;;;;;9.28;58.86;101551.50;5067599;27;45308;-72
2021/12/11 10:07:32;;;;;;;;;13.75;10.75;;;;;9.26;59.23;101550.66;5050129;27;45537;-72
2021/12/11 10:10:13;;;;;;;;;13.75;13.50;;;;;9.28;58.79;101560.38;5080610;28;45510;-72
2021/12/11 10:12:44;;;;;;;;;11.25;10.00;;;;;9.24;58.67;101563.13;5080438;28;45906;-72
2021/12/11 10:15:16;;;;;;;;;10.75;9.50;;;;;9.21;58.83;101563.16;5080627;27;45356;-71
2021/12/11 10:17:53;;;;;;;;;11.75;9.25;;;;;9.25;58.95;101562.22;5080540;27;45349;-72
2021/12/11 10:20:33;;;;;;;;;14.75;11.25;;;;;9.22;59.32;101563.16;5079760;28;46555;-72
2021/12/11 10:23:02;;;;;;;;;14.25;11.75;;;;;9.19;59.00;101562.31;5080331;28;45698;-72
2021/12/11 10:25:32;;;;;;;;;15.25;10.00;;;;;9.16;59.00;101563.22;5073823;28;45401;-72
2021/12/11 10:27:59;;;;;;;;;14.00;10.00;;;;;9.21;59.25;101561.38;5080474;28;45318;-72
2021/12/11 10:30:26;;;;;;;;;11.50;9.00;;;;;9.28;59.46;101563.03;5066934;28;45316;-72
2021/12/11 10:32:54;;;;;;;;;9.00;9.00;;;;;9.28;59.47;101567.50;5080297;28;45162;-72
2021/12/11 10:35:33;;;;;;;;;12.25;9.25;;;;;9.26;59.42;101558.66;5080565;28;45377;-76
2021/12/11 10:38:01;;;;;;;;;8.75;8.75;;;;;9.12;59.33;101532.22;5080253;28;45307;-71
2021/12/11 10:40:34;;;;;;;;;14.50;9.00;;;;;9.21;59.61;101556.03;5079884;28;46577;-70
2021/12/11 10:43:05;;;;;;;;;8.00;7.00;;;;;9.26;59.51;101570.19;5080347;28;45567;-71
2021/12/11 10:45:31;;;;;;;;;8.50;7.75;;;;;9.32;59.21;101571.00;5077847;28;45264;-71
2021/12/11 10:48:02;;;;;;;;;9.50;8.75;;;;;9.31;59.33;101574.59;5079589;28;45508;-71
2021/12/11 10:50:40;;;;;;;;;10.00;7.50;;;;;9.35;59.14;101579.81;5079588;28;46018;-71
2021/12/11 10:53:09;;;;;;;;;8.75;7.25;;;;;9.33;59.41;101578.09;5050469;28;45477;-70
2021/12/11 10:55:37;;;;;;;;;11.25;7.25;;;;;9.28;59.48;101572.81;5080065;28;45204;-74
2021/12/11 10:58:10;;;;;;;;;9.00;7.00;;;;;9.34;59.61;101585.16;5079717;28;45621;-76
2021/12/11 11:00:41;;;;;;;;;8.75;8.75;;;;;9.39;59.48;101581.56;5063097;28;47564;-74
2021/12/11 11:03:08;;;;;;;;;9.00;8.00;;;;;9.37;59.45;101577.13;5079830;28;45462;-70
2021/12/11 11:05:36;;;;;;;;;7.75;7.75;;;;;9.37;59.30;101574.47;5079735;28;45366;-73
2021/12/11 11:08:03;;;;;;;;;10.25;8.75;;;;;9.44;59.13;101584.16;5080410;28;45429;-71
2021/12/11 11:10:33;;;;;;;;;11.50;9.00;;;;;9.44;59.20;101577.03;5083184;27;45398;-71
2021/12/11 11:13:04;;;;;;;;;9.00;8.00;;;;;9.51;59.61;101576.97;5083537;28;45241;-71
2021/12/11 11:15:30;;;;;;;;;12.00;7.25;;;;;9.49;59.14;101577.00;5083473;27;45402;-71
2021/12/11 11:17:57;;;;;;;;;8.75;8.75;;;;;9.60;59.34;101590.16;5072478;28;46369;-71
2021/12/11 11:20:34;;;;;;;;;8.50;7.50;;;;;9.57;58.80;101583.09;5047322;28;47413;-71
2021/12/11 11:23:00;;;;;;;;;10.00;8.00;;;;;9.54;59.19;101580.47;5075744;28;45268;-71
2021/12/11 11:25:30;;;;;;;;;10.25;8.50;;;;;9.52;58.91;101571.63;5076597;28;45176;-71
2021/12/11 11:28:04;;;;;;;;;5.00;5.00;;;;;9.52;59.49;101568.94;5083639;28;45396;-71
2021/12/11 11:30:38;;;;;;;;;5.50;5.50;;;;;9.62;59.33;101581.22;5069954;27;46563;-71
2021/12/11 11:33:07;;;;;;;;;8.25;5.50;;;;;9.56;59.02;101559.13;5083199;28;46121;-71
2021/12/11 11:35:33;;;;;;;;;8.75;6.00;;;;;9.66;59.05;101570.53;5083082;28;45487;-71
2021/12/11 11:38:02;;;;;;;;;6.75;4.75;;;;;9.69;59.17;101576.69;5082560;28;45257;-72
2021/12/11 11:40:33;;;;;;;;;8.00;6.50;;;;;9.61;58.96;101566.13;5064690;28;46235;-71
2021/12/11 11:42:58;;;;;;;;;5.00;4.75;;;;;9.66;59.12;101576.72;5064889;27;45398;-71
2021/12/11 11:45:26;;;;;;;;;6.50;5.50;;;;;9.75;58.94;101587.22;5078393;28;45181;-71
2021/12/11 11:47:54;;;;;;;;;8.50;8.50;;;;;9.80;58.67;101585.38;5081515;27;45582;-71
2021/12/11 11:50:21;;;;;;;;;7.00;7.00;;;;;9.77;59.30;101579.22;5081150;28;47255;-71
2021/12/11 11:52:48;;;;;;;;;10.25;7.00;;;;;9.57;58.39;101548.44;5064066;28;45396;-71
2021/12/11 11:55:25;;;;;;;;;6.00;5.00;;;;;9.80;58.76;101587.16;5082837;27;45513;-71
2021/12/11 11:57:53;;;;;;;;;9.00;9.00;;;;;9.82;58.48;101596.94;5082823;27;45304;-71
2021/12/11 12:00:43;;;;;;;;;5.00;5.00;;;;;9.71;58.66;101577.53;5053146;28;47367;-71